Time;durP1;ratioP1;P1;durP2;ratioP2;P2;SDS_P1;SDS_P2;PMS_P1;PMS_P2;Temp;Humidity;BMP_temperature;BMP_pressure;BME280_temperature;BME280_humidity;BME280_pressure;Samples;Min_cycle;Max_cycle;Signal;HPM_P1;HPM_P2
2023/05/20 00:00:35;;;;;;;9.57;3.83;;;;;;;-145.69;100.00;52428.53;5052073;28;20214;-84
2023/05/20 00:03:02;;;;;;;9.93;4.43;;;;;;;-145.69;100.00;52430.53;5052411;28;20210;-84
2023/05/20 00:05:28;;;;;;;10.00;4.90;;;;;;;-145.69;100.00;52462.22;5055486;28;20201;-84
2023/05/20 00:07:55;;;;;;;13.40;4.43;;;;;;;-145.69;100.00;52468.16;5055988;28;20555;-83
2023/05/20 00:10:23;;;;;;;9.90;4.83;;;;;;;-145.69;100.00;52480.03;5056139;28;20206;-84
2023/05/20 00:12:49;;;;;;;10.83;5.00;;;;;;;-145.69;100.00;52412.69;5070317;28;20218;-85
2023/05/20 00:15:16;;;;;;;9.43;5.30;;;;;;;-145.69;100.00;52418.63;5061288;28;20200;-84
2023/05/20 00:17:42;;;;;;;9.17;4.77;;;;;;;-145.69;100.00;52402.78;5056130;28;20203;-84
2023/05/20 00:20:09;;;;;;;9.47;4.93;;;;;;;-145.69;100.00;52452.31;5055653;28;20195;-83
2023/05/20 00:22:36;;;;;;;9.13;4.53;;;;;;;-145.69;100.00;52440.44;5055907;28;20207;-84
2023/05/20 00:25:02;;;;;;;13.07;5.57;;;;;;;-145.69;100.00;52412.69;5055755;28;20203;-85
2023/05/20 00:27:30;;;;;;;12.00;4.63;;;;;;;-145.69;100.00;52450.31;5055707;28;20203;-85
2023/05/20 00:29:57;;;;;;;9.43;4.07;;;;;;;-145.69;100.00;52446.38;5055297;28;20288;-84
2023/05/20 00:32:24;;;;;;;8.13;3.77;;;;;;;-145.69;100.00;52452.31;5055718;28;20200;-85
2023/05/20 00:34:57;;;;;;;6.37;3.53;;;;;;;-145.69;100.00;52454.28;5055876;28;20199;-86
2023/05/20 00:37:24;;;;;;;9.57;3.57;;;;;;;-145.69;100.00;52446.38;5054386;28;20207;-86
2023/05/20 00:39:51;;;;;;;11.50;4.60;;;;;;;-145.69;100.00;52460.22;5055646;28;20203;-84
2023/05/20 00:42:20;;;;;;;6.07;4.17;;;;;;;-145.69;100.00;52478.06;5063643;28;20198;-85
2023/05/20 00:44:50;;;;;;;5.10;3.57;;;;;;;-145.69;100.00;52460.22;5075700;28;20198;-84
2023/05/20 00:47:19;;;;;;;7.13;3.33;;;;;;;-145.69;100.00;52487.97;5075405;28;20199;-84
2023/05/20 00:49:49;;;;;;;9.93;3.73;;;;;;;-145.69;100.00;52440.44;5074956;28;20284;-84
2023/05/20 00:52:16;;;;;;;7.27;3.73;;;;;;;-145.69;100.00;52472.13;5075396;28;20202;-84
2023/05/20 00:54:42;;;;;;;6.20;3.30;;;;;;;-145.69;100.00;52484.00;5075162;28;20199;-84
2023/05/20 00:57:09;;;;;;;6.30;3.83;;;;;;;-145.69;100.00;52440.44;5075498;28;20203;-84
2023/05/20 00:59:37;;;;;;;6.67;3.97;;;;;;;-145.69;100.00;52462.22;5075200;28;20203;-84
2023/05/20 01:02:06;;;;;;;11.15;4.13;;;;;;;-145.69;100.00;52452.31;5067709;28;20447;-83
2023/05/20 01:04:33;;;;;;;9.43;3.87;;;;;;;-145.69;100.00;52448.34;5051942;28;20647;-84
2023/05/20 01:07:03;;;;;;;6.50;3.47;;;;;;;-145.69;100.00;52480.03;5054919;28;20573;-83
2023/05/20 01:09:30;;;;;;;7.80;3.60;;;;;;;-145.69;100.00;52478.06;5054542;28;20234;-83
2023/05/20 01:12:02;;;;;;;7.13;3.60;;;;;;;-145.69;100.00;52444.38;5054942;28;20298;-84
2023/05/20 01:14:32;;;;;;;6.83;3.40;;;;;;;-145.69;100.00;52452.31;5054626;28;20253;-84
2023/05/20 01:17:08;;;;;;;9.20;3.70;;;;;;;-145.69;100.00;52474.09;5053989;28;20199;-82
2023/05/20 01:19:42;;;;;;;6.20;3.30;;;;;;;-145.69;100.00;52440.44;5054667;28;20206;-84
2023/05/20 01:22:11;;;;;;;10.30;4.60;;;;;;;-145.69;100.00;52448.34;5054708;28;20256;-84
2023/05/20 01:24:41;;;;;;;5.90;3.63;;;;;;;-145.69;100.00;52460.22;5072858;28;20209;-85
2023/05/20 01:27:09;;;;;;;7.70;3.73;;;;;;;-145.69;100.00;52424.59;5073488;28;20195;-85
2023/05/20 01:29:37;;;;;;;7.77;3.20;;;;;;;-145.69;100.00;52448.34;5074450;28;20681;-84
2023/05/20 01:32:07;;;;;;;7.20;3.47;;;;;;;-145.69;100.00;52491.91;5074190;28;20199;-84
2023/05/20 01:34:36;;;;;;;6.07;3.30;;;;;;;-145.69;100.00;52470.13;5074297;28;20206;-84
2023/05/20 01:37:04;;;;;;;7.73;3.83;;;;;;;-145.69;100.00;52507.75;5074314;28;20665;-84
2023/05/20 01:39:33;;;;;;;6.90;4.33;;;;;;;-145.69;100.00;52466.16;5074431;28;20195;-84
2023/05/20 01:42:03;;;;;;;8.33;4.43;;;;;;;-145.69;100.00;52472.13;5074346;28;20210;-84
2023/05/20 01:44:30;;;;;;;9.93;4.90;;;;;;;-145.69;100.00;52476.06;5074202;28;20203;-84
2023/05/20 01:46:56;;;;;;;10.47;4.20;;;;;;;-145.69;100.00;52460.22;5074159;28;20203;-84
2023/05/20 01:49:23;;;;;;;7.10;4.37;;;;;;;-145.69;100.00;52480.03;5073791;28;20346;-84
2023/05/20 01:51:49;;;;;;;7.67;4.53;;;;;;;-145.69;100.00;52497.84;5073933;28;20198;-85
2023/05/20 01:54:16;;;;;;;10.77;4.80;;;;;;;-145.69;100.00;52507.75;5057266;28;20229;-84
2023/05/20 01:56:43;;;;;;;9.30;4.67;;;;;;;-145.69;100.00;52458.25;5053057;28;20199;-84
2023/05/20 01:59:10;;;;;;;8.93;4.27;;;;;;;-145.69;100.00;52480.03;5055777;28;20195;-84
2023/05/20 02:01:37;;;;;;;8.30;4.70;;;;;;;-145.69;100.00;52484.00;5073800;28;20645;-83
2023/05/20 02:04:04;;;;;;;7.33;4.20;;;;;;;-145.69;100.00;52474.09;5073599;28;20207;-83
2023/05/20 02:06:30;;;;;;;7.23;4.00;;;;;;;-145.69;100.00;52476.06;5073833;28;20220;-84
2023/05/20 02:08:57;;;;;;;8.93;4.47;;;;;;;-145.69;100.00;52511.72;5064993;28;20234;-83
2023/05/20 02:11:23;;;;;;;7.97;4.13;;;;;;;-145.69;100.00;52482.00;5037022;28;20219;-83
2023/05/20 02:13:50;;;;;;;11.40;4.80;;;;;;;-145.69;100.00;52478.06;5033541;28;20196;-83
2023/05/20 02:16:18;;;;;;;10.80;5.10;;;;;;;-145.69;100.00;52501.81;5033639;28;20674;-84
2023/05/20 02:18:45;;;;;;;9.97;4.80;;;;;;;-145.69;100.00;52468.16;5033606;28;20563;-84
2023/05/20 02:21:11;;;;;;;9.70;5.80;;;;;;;-145.69;100.00;52456.28;5033849;28;20201;-85
2023/05/20 02:23:38;;;;;;;10.87;5.57;;;;;;;-145.69;100.00;52458.25;5056200;28;20206;-84
2023/05/20 02:26:04;;;;;;;14.60;6.80;;;;;;;-145.69;100.00;52472.13;5071880;28;20191;-84
2023/05/20 02:28:31;;;;;;;11.50;6.33;;;;;;;-145.69;100.00;52472.13;5072420;28;20210;-84
2023/05/20 02:30:57;;;;;;;11.40;5.93;;;;;;;-145.69;100.00;52499.84;5073588;28;20199;-84
2023/05/20 02:33:27;;;;;;;19.63;7.37;;;;;;;-145.69;100.00;52452.31;5073216;28;20681;-84
2023/05/20 02:35:54;;;;;;;13.33;7.03;;;;;;;-145.69;100.00;52487.97;5073244;28;20298;-85
2023/05/20 02:38:21;;;;;;;15.20;7.07;;;;;;;-145.69;100.00;52446.38;5073424;28;20209;-84
2023/05/20 02:40:47;;;;;;;14.47;6.87;;;;;;;-145.69;100.00;52428.53;5073262;28;20206;-84
2023/05/20 02:43:13;;;;;;;15.90;8.07;;;;;;;-145.69;100.00;52460.22;5073090;28;20206;-84
2023/05/20 02:45:40;;;;;;;17.47;7.83;;;;;;;-145.69;100.00;52456.28;5073249;28;20202;-83
2023/05/20 02:48:07;;;;;;;21.00;8.23;;;;;;;-145.69;100.00;52478.06;5073094;28;20260;-83
2023/05/20 02:50:38;;;;;;;13.77;7.30;;;;;;;-145.69;100.00;52478.06;5073075;28;20656;-83
2023/05/20 02:53:04;;;;;;;14.67;7.80;;;;;;;-145.69;100.00;52468.16;5066408;28;20196;-83
2023/05/20 02:55:34;;;;;;;16.90;7.20;;;;;;;-145.69;100.00;52460.22;5052932;28;20195;-84
2023/05/20 02:58:00;;;;;;;14.60;7.63;;;;;;;-145.69;100.00;52452.31;5053065;28;20203;-84
2023/05/20 03:00:29;;;;;;;16.53;7.83;;;;;;;-145.69;100.00;52466.16;5052833;28;20673;-83
2023/05/20 03:02:56;;;;;;;15.73;8.10;;;;;;;-145.69;100.00;52434.47;5053274;28;20201;-84
2023/05/20 03:05:22;;;;;;;16.73;8.77;;;;;;;-145.69;100.00;52478.06;5053041;28;20199;-85
2023/05/20 03:07:50;;;;;;;14.53;7.50;;;;;;;-145.69;100.00;52484.00;5049334;28;20203;-83
2023/05/20 03:10:17;;;;;;;16.60;7.97;;;;;;;-145.69;100.00;52489.94;5052539;28;20239;-83
2023/05/20 03:12:43;;;;;;;12.60;7.93;;;;;;;-145.69;100.00;52464.19;5052772;28;20554;-83
2023/05/20 03:15:11;;;;;;;16.20;8.77;;;;;;;-145.69;100.00;52452.31;5052550;28;20196;-83
2023/05/20 03:17:37;;;;;;;14.67;8.87;;;;;;;-145.69;100.00;52462.22;5052621;28;20202;-84
2023/05/20 03:20:07;;;;;;;16.50;7.53;;;;;;;-145.69;100.00;52491.91;5052715;28;20229;-84
2023/05/20 03:22:33;;;;;;;16.90;7.77;;;;;;;-145.69;100.00;52487.97;5054428;28;20650;-84
2023/05/20 03:25:01;;;;;;;19.40;7.90;;;;;;;-145.69;100.00;52472.13;5072651;28;20210;-84
2023/05/20 03:27:27;;;;;;;14.80;8.37;;;;;;;-145.69;100.00;52456.28;5072680;28;20217;-84
2023/05/20 03:29:54;;;;;;;15.13;7.97;;;;;;;-145.69;100.00;52487.97;5072796;28;20241;-84
2023/05/20 03:32:20;;;;;;;11.33;6.97;;;;;;;-145.69;100.00;52489.94;5058835;28;20206;-84
2023/05/20 03:34:47;;;;;;;13.70;7.73;;;;;;;-145.69;100.00;52487.97;5052763;28;20210;-84
2023/05/20 03:37:13;;;;;;;15.60;8.00;;;;;;;-145.69;100.00;52476.06;5052560;28;20199;-84
2023/05/20 03:39:40;;;;;;;16.33;8.30;;;;;;;-145.69;100.00;52452.31;5054334;28;20203;-84
2023/05/20 03:42:08;;;;;;;14.03;7.60;;;;;;;-145.69;100.00;52478.06;5056823;28;20206;-85
2023/05/20 03:44:34;;;;;;;14.13;8.27;;;;;;;-145.69;100.00;52452.31;5056517;28;20204;-84
2023/05/20 03:47:01;;;;;;;14.70;7.73;;;;;;;-145.69;100.00;52454.28;5056599;28;20195;-84
2023/05/20 03:49:27;;;;;;;13.20;7.70;;;;;;;-145.69;100.00;52476.06;5056462;28;20238;-85
2023/05/20 03:51:54;;;;;;;16.60;8.30;;;;;;;-145.69;100.00;52484.00;5056351;28;20206;-84
2023/05/20 03:54:20;;;;;;;13.17;7.57;;;;;;;-145.69;100.00;52466.16;5072609;28;20286;-84
2023/05/20 03:56:48;;;;;;;15.93;8.40;;;;;;;-145.69;100.00;52462.22;5074888;28;20248;-84
2023/05/20 03:59:16;;;;;;;13.60;8.00;;;;;;;-145.69;100.00;52517.66;5076310;28;20234;-84
2023/05/20 04:01:43;;;;;;;21.20;7.63;;;;;;;-145.69;100.00;52460.22;5075970;28;20187;-84
2023/05/20 04:04:09;;;;;;;16.53;7.33;;;;;;;-145.69;100.00;52478.06;5076279;28;20205;-84
2023/05/20 04:06:36;;;;;;;13.47;7.70;;;;;;;-145.69;100.00;52503.81;5076034;28;20202;-84
2023/05/20 04:09:02;;;;;;;15.30;7.83;;;;;;;-145.69;100.00;52464.19;5075864;28;20202;-84
2023/05/20 04:11:29;;;;;;;15.30;8.77;;;;;;;-145.69;100.00;52472.13;5065532;28;20278;-84
2023/05/20 04:13:57;;;;;;;14.73;8.27;;;;;;;-145.69;100.00;52484.00;5056210;28;20203;-84
2023/05/20 04:16:25;;;;;;;11.87;7.67;;;;;;;-145.69;100.00;52493.91;5056145;28;20206;-84
2023/05/20 04:18:52;;;;;;;10.97;7.47;;;;;;;-145.69;100.00;52464.19;5055897;28;20258;-84
2023/05/20 04:21:18;;;;;;;16.13;7.47;;;;;;;-145.69;100.00;52491.91;5055818;28;20203;-85
2023/05/20 04:23:45;;;;;;;23.03;8.90;;;;;;;-145.69;100.00;52480.03;5066770;28;20642;-84
2023/05/20 04:26:11;;;;;;;15.67;7.60;;;;;;;-145.69;100.00;52484.00;5075717;28;20202;-84
2023/05/20 04:28:40;;;;;;;17.03;7.87;;;;;;;-145.69;100.00;52480.03;5075618;28;20209;-84
2023/05/20 04:31:07;;;;;;;15.07;7.17;;;;;;;-145.69;100.00;52452.31;5075447;28;20586;-84
2023/05/20 04:33:37;;;;;;;13.60;7.17;;;;;;;-145.69;100.00;52462.22;5075473;28;20199;-83
2023/05/20 04:36:04;;;;;;;14.27;7.80;;;;;;;-145.69;100.00;52420.63;5075854;28;20205;-84
2023/05/20 04:38:31;;;;;;;21.43;8.00;;;;;;;-145.69;100.00;52487.97;5075350;28;20214;-84
2023/05/20 04:40:57;;;;;;;12.53;7.67;;;;;;;-145.69;100.00;52470.13;5075397;28;20258;-85
2023/05/20 04:43:24;;;;;;;13.30;7.47;;;;;;;-145.69;100.00;52472.13;5075937;28;20550;-84
2023/05/20 04:45:52;;;;;;;13.13;7.70;;;;;;;-145.69;100.00;52484.00;5074242;28;20209;-85
2023/05/20 04:48:21;;;;;;;14.37;7.70;;;;;;;-145.69;100.00;52458.25;5075271;28;20298;-84
2023/05/20 04:50:50;;;;;;;14.60;7.57;;;;;;;-145.69;100.00;52460.22;5074310;28;20591;-85
2023/05/20 04:53:18;;;;;;;12.50;6.97;;;;;;;-145.69;100.00;52480.03;5067803;28;20540;-84
2023/05/20 04:55:45;;;;;;;13.67;7.67;;;;;;;-145.69;100.00;52482.00;5055540;28;20210;-85
2023/05/20 04:58:14;;;;;;;14.73;7.80;;;;;;;-145.69;100.00;52468.16;5055253;28;20575;-85
2023/05/20 05:00:41;;;;;;;16.40;7.10;;;;;;;-145.69;100.00;52472.13;5055040;28;20210;-84
2023/05/20 05:03:08;;;;;;;12.97;6.97;;;;;;;-145.69;100.00;52460.22;5055179;28;20199;-84
2023/05/20 05:05:35;;;;;;;16.20;7.23;;;;;;;-145.69;100.00;52478.06;5045525;28;20200;-84
2023/05/20 05:08:03;;;;;;;11.63;6.47;;;;;;;-145.69;100.00;52452.31;5034999;28;20210;-84
2023/05/20 05:10:30;;;;;;;21.47;6.20;;;;;;;-145.69;100.00;52487.97;5034972;28;20227;-84
2023/05/20 05:12:56;;;;;;;14.57;7.10;;;;;;;-145.69;100.00;52499.84;5034880;28;20651;-85
2023/05/20 05:15:23;;;;;;;14.47;6.80;;;;;;;-145.69;100.00;52503.81;5034860;28;20207;-85
2023/05/20 05:17:50;;;;;;;15.70;6.87;;;;;;;-145.69;100.00;52484.00;5035012;28;20210;-84
2023/05/20 05:20:17;;;;;;;14.23;6.97;;;;;;;-145.69;100.00;52476.06;5034977;28;20224;-84
2023/05/20 05:22:44;;;;;;;11.40;6.90;;;;;;;-145.69;100.00;52450.31;5038419;28;20196;-84
2023/05/20 05:25:13;;;;;;;15.00;7.20;;;;;;;-145.69;100.00;52468.16;5070552;28;20199;-83
2023/05/20 05:27:39;;;;;;;13.07;6.77;;;;;;;-145.69;100.00;52495.88;5074499;28;20203;-83
2023/05/20 05:30:07;;;;;;;15.65;6.90;;;;;;;-145.69;100.00;52466.16;5074161;28;20245;-84
2023/05/20 05:32:33;;;;;;;11.27;7.17;;;;;;;-145.69;100.00;52497.84;5074579;28;20218;-84
2023/05/20 05:35:00;;;;;;;13.13;6.47;;;;;;;-145.69;100.00;52460.22;5074321;28;20298;-84
2023/05/20 05:37:26;;;;;;;16.57;7.13;;;;;;;-145.69;100.00;52485.97;5074206;28;20199;-85
2023/05/20 05:39:53;;;;;;;13.70;6.60;;;;;;;-145.69;100.00;52468.16;5074420;28;20207;-84
2023/05/20 05:42:21;;;;;;;18.80;7.00;;;;;;;-145.69;100.00;52452.31;5072992;28;20252;-84
2023/05/20 05:44:48;;;;;;;13.60;6.27;;;;;;;-145.69;100.00;52464.19;5074059;28;20657;-84
2023/05/20 05:47:14;;;;;;;16.65;6.38;;;;;;;-145.69;100.00;52444.38;5074416;28;20202;-85
2023/05/20 05:49:41;;;;;;;14.43;6.60;;;;;;;-145.69;100.00;52472.13;5072795;28;20231;-84
2023/05/20 05:52:07;;;;;;;15.33;6.37;;;;;;;-145.69;100.00;52460.22;5073960;28;20199;-85
2023/05/20 05:54:34;;;;;;;14.52;6.88;;;;;;;-145.69;100.00;52468.16;5057239;28;20203;-85
2023/05/20 05:57:00;;;;;;;12.60;5.80;;;;;;;-145.69;100.00;52444.38;5053874;28;20210;-84
2023/05/20 05:59:28;;;;;;;10.90;6.10;;;;;;;-145.69;100.00;52438.44;5054017;28;20245;-84
2023/05/20 06:01:55;;;;;;;10.57;5.80;;;;;;;-145.69;100.00;52428.53;5053965;28;20574;-84
2023/05/20 06:04:21;;;;;;;15.27;6.15;;;;;;;-145.69;100.00;52448.34;5054065;28;20650;-84
2023/05/20 06:06:48;;;;;;;13.30;5.47;;;;;;;-145.69;100.00;52432.50;5053876;28;20199;-85
2023/05/20 06:09:15;;;;;;;12.68;5.80;;;;;;;-145.69;100.00;52392.91;5053689;28;20207;-85
2023/05/20 06:11:43;;;;;;;9.80;5.90;;;;;;;-145.69;100.00;52430.53;5053606;28;20231;-85
2023/05/20 06:14:09;;;;;;;13.35;6.30;;;;;;;-145.69;100.00;52402.78;5053827;28;20208;-84
2023/05/20 06:16:38;;;;;;;12.63;5.47;;;;;;;-145.69;100.00;52456.28;5053389;28;20207;-84
2023/05/20 06:19:04;;;;;;;10.80;5.65;;;;;;;-145.69;100.00;52412.69;5053652;28;20227;-84
2023/05/20 06:21:31;;;;;;;10.82;5.88;;;;;;;-145.69;100.00;52412.69;5053576;28;20211;-84
2023/05/20 06:23:58;;;;;;;7.85;5.40;;;;;;;-145.69;100.00;52420.63;5053659;28;20207;-84
2023/05/20 06:26:24;;;;;;;12.68;6.00;;;;;;;-145.69;100.00;52416.66;5053362;28;20663;-83
2023/05/20 06:28:52;;;;;;;14.63;6.57;;;;;;;-145.69;100.00;52440.44;5053404;28;20235;-84
2023/05/20 06:31:18;;;;;;;13.57;5.78;;;;;;;-145.69;100.00;52468.16;5055978;28;20262;-84
2023/05/20 06:33:46;;;;;;;13.18;5.72;;;;;;;-145.69;100.00;52422.59;5072744;28;20195;-85
2023/05/20 06:36:12;;;;;;;11.82;5.80;;;;;;;-145.69;100.00;52460.22;5073342;28;20202;-84
2023/05/20 06:38:39;;;;;;;11.32;5.93;;;;;;;-145.69;100.00;52450.31;5073149;28;20206;-83
2023/05/20 06:41:05;;;;;;;15.65;5.90;;;;;;;-145.69;100.00;52410.72;5073492;28;20202;-84
2023/05/20 06:43:33;;;;;;;12.32;6.07;;;;;;;-145.69;100.00;52436.47;5073454;28;20289;-84
2023/05/20 06:45:59;;;;;;;11.25;5.82;;;;;;;-145.69;100.00;52440.44;5073279;28;20199;-84
2023/05/20 06:48:25;;;;;;;18.02;6.05;;;;;;;-145.69;100.00;52446.38;5072932;28;20245;-84
2023/05/20 06:50:53;;;;;;;11.40;6.43;;;;;;;-145.69;100.00;52424.59;5073242;28;20218;-84
2023/05/20 06:53:20;;;;;;;14.35;6.30;;;;;;;-145.69;100.00;52452.31;5067378;28;20203;-86
2023/05/20 06:55:46;;;;;;;10.90;5.75;;;;;;;-145.69;100.00;52426.56;5053062;28;20203;-83
2023/05/20 06:58:13;;;;;;;11.43;6.72;;;;;;;-145.69;100.00;52440.44;5072715;28;20202;-84
2023/05/20 07:00:40;;;;;;;12.55;6.47;;;;;;;-145.69;100.00;52420.63;5073147;28;20654;-84
2023/05/20 07:03:06;;;;;;;12.15;6.47;;;;;;;-145.69;100.00;52428.53;5072808;28;20655;-84
2023/05/20 07:05:33;;;;;;;10.40;6.15;;;;;;;-145.69;100.00;52412.69;5072984;28;20206;-84
2023/05/20 07:08:01;;;;;;;14.05;6.13;;;;;;;-145.69;100.00;52400.81;5072786;28;20213;-83
2023/05/20 07:10:27;;;;;;;11.35;6.18;;;;;;;-145.69;100.00;52432.50;5070761;28;20226;-84
2023/05/20 07:12:54;;;;;;;9.38;6.00;;;;;;;-145.69;100.00;52450.31;5037782;28;20685;-84
2023/05/20 07:15:20;;;;;;;13.05;5.43;;;;;;;-145.69;100.00;52444.38;5052043;28;20246;-84
2023/05/20 07:17:47;;;;;;;13.05;6.20;;;;;;;-145.69;100.00;52408.75;5052863;28;20203;-84
2023/05/20 07:20:13;;;;;;;9.13;5.50;;;;;;;-145.69;100.00;52400.81;5052617;28;20211;-85
2023/05/20 07:22:40;;;;;;;13.60;5.28;;;;;;;-145.69;100.00;52400.81;5052795;28;20658;-84
2023/05/20 07:25:08;;;;;;;9.43;5.45;;;;;;;-145.69;100.00;52381.00;5071150;28;20748;-84
2023/05/20 07:27:35;;;;;;;11.93;5.45;;;;;;;-145.69;100.00;52400.81;5072724;28;20206;-83
2023/05/20 07:30:02;;;;;;;8.13;5.35;;;;;;;-145.69;100.00;52375.06;5072590;28;20657;-84
2023/05/20 07:32:28;;;;;;;11.98;5.25;;;;;;;-145.69;100.00;52410.72;5072563;28;20245;-85
2023/05/20 07:34:54;;;;;;;10.65;5.80;;;;;;;-145.69;100.00;52394.88;5072649;28;20202;-85
2023/05/20 07:37:21;;;;;;;8.52;5.18;;;;;;;-145.69;100.00;52392.91;5073006;28;20195;-84
2023/05/20 07:39:47;;;;;;;9.73;5.72;;;;;;;-145.69;100.00;52392.91;5072849;28;20202;-85
2023/05/20 07:42:15;;;;;;;9.10;4.80;;;;;;;-145.69;100.00;52398.84;5071324;28;20234;-85
2023/05/20 07:44:42;;;;;;;14.23;5.35;;;;;;;-145.69;100.00;52392.91;5072656;28;20206;-85
2023/05/20 07:47:09;;;;;;;10.30;4.97;;;;;;;-145.69;100.00;52369.13;5072565;28;20730;-85
2023/05/20 07:49:35;;;;;;;9.02;5.82;;;;;;;-145.69;100.00;52349.31;5072304;28;20249;-85
2023/05/20 07:52:02;;;;;;;9.05;5.65;;;;;;;-145.69;100.00;52377.06;5072469;28;20226;-85
2023/05/20 07:54:28;;;;;;;7.68;4.80;;;;;;;-145.69;100.00;52355.28;5059215;28;20200;-86
2023/05/20 07:56:55;;;;;;;13.38;6.10;;;;;;;-145.69;100.00;52375.06;5052524;28;20207;-87
2023/05/20 07:59:25;;;;;;;9.68;5.35;;;;;;;-145.69;100.00;52329.53;5052481;28;20207;-85
2023/05/20 08:01:53;;;;;;;8.65;5.45;;;;;;;-145.69;100.00;52367.16;5054963;28;20571;-85
2023/05/20 08:04:19;;;;;;;8.35;4.97;;;;;;;-145.69;99.01;52377.06;5072284;28;20604;-87
2023/05/20 08:06:46;;;;;;;8.77;5.10;;;;;;;-145.69;94.78;52325.56;5072998;28;20206;-83
2023/05/20 08:09:12;;;;;;;7.32;5.03;;;;;;;-145.69;96.31;52369.13;5072921;28;20207;-85
2023/05/20 08:11:39;;;;;;;6.13;4.60;;;;;;;-145.69;97.28;52329.53;5072705;28;20574;-89
2023/05/20 08:14:07;;;;;;;6.95;4.72;;;;;;;-145.69;91.26;52345.38;5072311;28;20202;-89
2023/05/20 08:16:36;;;;;;;9.88;5.13;;;;;;;-145.69;89.01;52337.44;5072505;28;20210;-86
2023/05/20 08:19:02;;;;;;;7.80;4.68;;;;;;;-145.69;81.84;52335.47;5061424;28;20200;-84
2023/05/20 08:21:29;;;;;;;5.65;4.20;;;;;;;-145.69;76.78;52329.53;5052323;28;20205;-85
2023/05/20 08:23:55;;;;;;;7.63;4.32;;;;;;;-145.69;82.05;52301.81;5058799;28;20194;-85
2023/05/20 08:26:22;;;;;;;9.40;4.50;;;;;;;-145.69;85.62;52329.53;5073392;28;20203;-85
2023/05/20 08:28:48;;;;;;;6.95;4.35;;;;;;;-145.69;86.88;52323.59;5075459;28;20198;-84
2023/05/20 08:31:16;;;;;;;7.75;3.85;;;;;;;-145.69;86.67;52305.75;5075385;28;20223;-83
2023/05/20 08:33:44;;;;;;;7.68;3.75;;;;;;;-145.69;79.07;52305.75;5075669;28;20260;-85
2023/05/20 08:36:11;;;;;;;6.75;3.85;;;;;;;-145.69;78.10;52317.66;5075726;28;20195;-82
2023/05/20 08:38:37;;;;;;;6.03;4.00;;;;;;;-145.69;73.00;52323.59;5075789;28;20640;-83
2023/05/20 08:41:04;;;;;;;5.10;3.58;;;;;;;-145.69;77.00;52262.19;5075473;28;20206;-86
2023/05/20 08:43:31;;;;;;;6.63;3.75;;;;;;;-145.69;75.42;52313.69;5075648;28;20256;-84
2023/05/20 08:45:57;;;;;;;5.05;3.40;;;;;;;-145.69;75.50;52331.50;5075608;28;20213;-85
2023/05/20 08:48:26;;;;;;;4.85;3.80;;;;;;;-145.69;75.00;52282.00;5075647;28;20227;-85
2023/05/20 08:50:57;;;;;;;5.68;3.33;;;;;;;-145.69;66.90;52305.75;5075387;28;20318;-81
2023/05/20 08:53:23;;;;;;;5.15;3.58;;;;;;;-145.69;71.27;52301.81;5071628;28;20201;-85
2023/05/20 08:55:56;;;;;;;4.55;3.35;;;;;;;-145.69;76.43;52299.81;5055235;28;20207;-84
2023/05/20 08:58:23;;;;;;;7.57;4.47;;;;;;;-145.69;81.64;52327.53;5055073;28;20207;-81
2023/05/20 09:00:50;;;;;;;7.28;3.83;;;;;;;-145.69;84.01;52315.66;5054055;28;20570;-85
2023/05/20 09:03:16;;;;;;;5.88;4.22;;;;;;;-145.69;80.27;52309.72;5055222;28;20202;-85
2023/05/20 09:05:43;;;;;;;6.07;4.00;;;;;;;-145.69;76.04;52287.94;5051697;28;20282;-84
2023/05/20 09:08:12;;;;;;;6.97;4.18;;;;;;;-145.69;80.17;52282.00;5034936;28;20207;-84
2023/05/20 09:10:40;;;;;;;6.55;4.03;;;;;;;-145.69;81.37;52285.97;5034939;28;20200;-83
2023/05/20 09:13:08;;;;;;;6.60;3.90;;;;;;;-145.69;73.54;52262.19;5039380;28;20661;-83
2023/05/20 09:15:35;;;;;;;6.43;3.95;;;;;;;-145.69;72.29;52262.19;5054914;28;20745;-87
2023/05/20 09:18:02;;;;;;;5.95;3.85;;;;;;;-145.69;68.83;52274.06;5054982;28;20195;-82
2023/05/20 09:20:30;;;;;;;15.35;3.90;;;;;;;-145.69;68.74;52276.06;5054813;28;20670;-83
2023/05/20 09:22:59;;;;;;;4.47;3.47;;;;;;;-145.69;70.07;52242.38;5054729;28;20613;-84
2023/05/20 09:25:27;;;;;;;6.75;4.15;;;;;;;-145.69;64.38;52299.81;5073843;28;20202;-84
2023/05/20 09:27:54;;;;;;;5.55;3.72;;;;;;;-145.69;69.01;52268.13;5074560;28;20658;-86
2023/05/20 09:30:21;;;;;;;4.85;3.33;;;;;;;-145.69;65.96;52242.38;5075059;28;20203;-85
2023/05/20 09:32:52;;;;;;;4.43;3.40;;;;;;;-145.69;64.28;52258.22;5064203;28;20280;-86
2023/05/20 09:35:19;;;;;;;4.45;3.50;;;;;;;-145.69;66.46;52307.75;5054644;28;20203;-83
2023/05/20 09:37:47;;;;;;;5.75;3.65;;;;;;;-145.69;68.40;52248.34;5054043;28;20204;-88
2023/05/20 09:40:16;;;;;;;5.70;3.60;;;;;;;-145.69;67.70;52305.75;5054103;28;20507;-82
2023/05/20 09:42:52;;;;;;;5.03;2.95;;;;;;;-145.69;66.68;52250.31;5054493;28;20261;-83
2023/05/20 09:45:19;;;;;;;4.25;3.60;;;;;;;-145.69;67.34;52283.97;5054339;28;20554;-81
2023/05/20 09:47:46;;;;;;;5.97;3.85;;;;;;;-145.69;68.04;52258.22;5054318;28;20207;-84
2023/05/20 09:50:15;;;;;;;5.93;3.42;;;;;;;-145.69;68.82;52287.94;5054096;28;20239;-82
2023/05/20 09:52:43;;;;;;;5.38;3.50;;;;;;;-145.69;67.79;52285.97;5054087;28;20254;-85
2023/05/20 09:55:10;;;;;;;3.65;3.08;;;;;;;-145.69;67.40;52309.72;5070473;28;20199;-81
2023/05/20 09:57:38;;;;;;;5.18;3.20;;;;;;;-145.69;60.99;52285.97;5074371;28;20201;-85
2023/05/20 10:00:08;;;;;;;9.45;3.80;;;;;;;-145.69;64.36;52262.19;5073990;28;20205;-82
2023/05/20 10:02:36;;;;;;;6.53;3.88;;;;;;;-145.69;60.46;52278.03;5065151;28;20231;-89
2023/05/20 10:05:07;;;;;;;7.82;3.35;;;;;;;-145.69;61.42;52285.97;5053951;28;20211;-84
2023/05/20 10:07:55;;;;;;;6.72;3.63;;;;;;;-145.69;61.71;52266.16;5054462;28;20196;-83
2023/05/20 10:10:33;;;;;;;5.70;3.92;;;;;;;-145.69;58.76;52226.53;5054048;28;20633;-84
2023/05/20 10:13:12;;;;;;;5.30;3.78;;;;;;;-145.69;64.53;52254.28;5053351;28;20234;-81
2023/05/20 10:15:49;;;;;;;5.50;4.00;;;;;;;-145.69;59.06;52238.44;5054168;28;20265;-83
2023/05/20 10:18:27;;;;;;;5.50;3.28;;;;;;;-145.69;60.02;52270.13;5053820;28;20210;-87
2023/05/20 10:20:54;;;;;;;5.05;2.92;;;;;;;-145.69;63.55;52242.38;5053803;28;20195;-83
2023/05/20 10:23:23;;;;;;;7.13;4.53;;;;;;;-145.69;63.31;52246.34;5053860;28;20199;-82
2023/05/20 10:25:54;;;;;;;5.65;3.10;;;;;;;-145.69;58.54;52240.41;5032946;28;20208;-88
2023/05/20 10:28:40;;;;;;;5.05;3.10;;;;;;;-145.69;58.86;52274.06;5033536;28;20200;-85
2023/05/20 10:31:17;;;;;;;5.68;3.20;;;;;;;-145.69;61.74;52232.50;5033779;28;20222;-84
2023/05/20 10:33:45;;;;;;;6.97;4.45;;;;;;;-145.69;67.87;52236.44;5052274;28;20690;-85
2023/05/20 10:36:23;;;;;;;6.63;4.55;;;;;;;-145.69;71.17;52262.19;5053293;28;20666;-84
2023/05/20 10:38:54;;;;;;;7.25;4.10;;;;;;;-145.69;69.52;52274.06;5053786;28;20745;-84
2023/05/20 10:41:23;;;;;;;8.57;3.58;;;;;;;-145.69;62.69;52260.22;5054528;28;20286;-87
2023/05/20 10:44:01;;;;;;;6.85;4.68;;;;;;;-145.69;69.76;52266.16;5053887;28;20286;-84
2023/05/20 10:46:29;;;;;;;7.20;4.53;;;;;;;-145.69;73.67;52250.31;5052382;28;20221;-88
2023/05/20 10:48:56;;;;;;;6.78;4.50;;;;;;;-145.69;76.53;52232.50;5052933;28;20702;-84
2023/05/20 10:51:23;;;;;;;8.00;4.85;;;;;;;-145.69;75.52;52258.22;5053748;28;20207;-83
2023/05/20 10:53:53;;;;;;;8.18;4.78;;;;;;;-145.69;70.41;52258.22;5057855;28;20198;-84
2023/05/20 10:56:22;;;;;;;8.27;4.57;;;;;;;-145.69;69.31;52248.34;5073576;28;20217;-85
2023/05/20 10:58:49;;;;;;;8.77;5.00;;;;;;;-145.69;69.39;52238.44;5074130;28;20203;-84
2023/05/20 11:01:17;;;;;;;8.48;5.20;;;;;;;-145.69;71.99;52250.31;5073931;28;20653;-88
2023/05/20 11:03:46;;;;;;;7.90;4.72;;;;;;;-145.69;71.93;52285.97;5056574;28;20204;-84
2023/05/20 11:06:13;;;;;;;7.70;4.38;;;;;;;-145.69;70.73;52268.13;5052380;28;20204;-84
2023/05/20 11:08:40;;;;;;;7.25;4.05;;;;;;;-145.69;72.25;52264.16;5035770;28;20204;-87